sensor_id;sensor_type;location;lat;lon;timestamp;pressure;altitude;pressure_sealevel;temperature;humidity
8286;BME280;4181;43.416;24.598;2023-01-24T00:00:45;101236.59;;;3.78;100.00
8286;BME280;4181;43.416;24.598;2023-01-24T00:03:11;101254.31;;;3.96;100.00
8286;BME280;4181;43.416;24.598;2023-01-24T00:05:42;101246.19;;;4.04;100.00
8286;BME280;4181;43.416;24.598;2023-01-24T00:08:09;101263.28;;;3.96;100.00
8286;BME280;4181;43.416;24.598;2023-01-24T00:10:36;101268.78;;;4.03;100.00
8286;BME280;4181;43.416;24.598;2023-01-24T00:13:02;101286.97;;;3.86;100.00
8286;BME280;4181;43.416;24.598;2023-01-24T00:15:27;101290.72;;;3.85;100.00
8286;BME280;4181;43.416;24.598;2023-01-24T00:17:53;101291.88;;;3.82;100.00
8286;BME280;4181;43.416;24.598;2023-01-24T00:20:18;101294.28;;;3.77;100.00
8286;BME280;4181;43.416;24.598;2023-01-24T00:22:44;101302.56;;;3.76;100.00
8286;BME280;4181;43.416;24.598;2023-01-24T00:25:09;101288.41;;;3.51;100.00
8286;BME280;4181;43.416;24.598;2023-01-24T00:27:35;101290.41;;;3.49;100.00
8286;BME280;4181;43.416;24.598;2023-01-24T00:30:03;101286.31;;;3.61;100.00
8286;BME280;4181;43.416;24.598;2023-01-24T00:32:29;101294.84;;;3.42;100.00
8286;BME280;4181;43.416;24.598;2023-01-24T00:34:55;101282.81;;;3.53;100.00
8286;BME280;4181;43.416;24.598;2023-01-24T00:37:20;101287.66;;;3.57;100.00
8286;BME280;4181;43.416;24.598;2023-01-24T00:39:46;101301.94;;;3.43;100.00
8286;BME280;4181;43.416;24.598;2023-01-24T00:42:11;101301.56;;;3.46;100.00
8286;BME280;4181;43.416;24.598;2023-01-24T00:44:37;101320.28;;;3.48;100.00
8286;BME280;4181;43.416;24.598;2023-01-24T00:47:02;101314.31;;;3.60;100.00
8286;BME280;4181;43.416;24.598;2023-01-24T00:49:28;101332.22;;;3.53;100.00
8286;BME280;4181;43.416;24.598;2023-01-24T00:51:53;101334.31;;;3.43;100.00
8286;BME280;4181;43.416;24.598;2023-01-24T00:54:19;101335.06;;;3.60;100.00
8286;BME280;4181;43.416;24.598;2023-01-24T00:56:44;101347.44;;;3.46;100.00
8286;BME280;4181;43.416;24.598;2023-01-24T00:59:10;101341.00;;;3.47;100.00
8286;BME280;4181;43.416;24.598;2023-01-24T01:01:35;101352.16;;;3.44;100.00
8286;BME280;4181;43.416;24.598;2023-01-24T01:04:01;101337.38;;;3.94;100.00
8286;BME280;4181;43.416;24.598;2023-01-24T01:06:26;101353.66;;;3.77;100.00
8286;BME280;4181;43.416;24.598;2023-01-24T01:08:52;101353.50;;;3.79;100.00
8286;BME280;4181;43.416;24.598;2023-01-24T01:11:17;101364.34;;;3.71;100.00
8286;BME280;4181;43.416;24.598;2023-01-24T01:13:44;101361.88;;;4.15;100.00
8286;BME280;4181;43.416;24.598;2023-01-24T01:16:16;101371.34;;;4.33;100.00
8286;BME280;4181;43.416;24.598;2023-01-24T01:18:42;101383.31;;;3.55;100.00
8286;BME280;4181;43.416;24.598;2023-01-24T01:21:14;101369.34;;;3.51;100.00
8286;BME280;4181;43.416;24.598;2023-01-24T01:23:40;101364.97;;;3.42;100.00
8286;BME280;4181;43.416;24.598;2023-01-24T01:26:08;101338.00;;;3.42;100.00
8286;BME280;4181;43.416;24.598;2023-01-24T01:28:35;101334.63;;;3.48;100.00
8286;BME280;4181;43.416;24.598;2023-01-24T01:31:00;101312.97;;;3.56;100.00
8286;BME280;4181;43.416;24.598;2023-01-24T01:33:26;101315.75;;;3.71;100.00
8286;BME280;4181;43.416;24.598;2023-01-24T01:35:52;101332.00;;;3.63;100.00
8286;BME280;4181;43.416;24.598;2023-01-24T01:38:18;101328.69;;;3.53;100.00
8286;BME280;4181;43.416;24.598;2023-01-24T01:40:44;101313.34;;;3.53;100.00
8286;BME280;4181;43.416;24.598;2023-01-24T01:43:21;101325.53;;;3.41;100.00
8286;BME280;4181;43.416;24.598;2023-01-24T01:45:51;101330.31;;;3.31;100.00
8286;BME280;4181;43.416;24.598;2023-01-24T01:50:51;101319.78;;;3.44;100.00
8286;BME280;4181;43.416;24.598;2023-01-24T01:53:20;101311.03;;;3.42;100.00
8286;BME280;4181;43.416;24.598;2023-01-24T01:55:51;101334.34;;;3.27;100.00
8286;BME280;4181;43.416;24.598;2023-01-24T01:58:19;101330.72;;;3.81;100.00
8286;BME280;4181;43.416;24.598;2023-01-24T02:00:45;101358.94;;;3.32;100.00
8286;BME280;4181;43.416;24.598;2023-01-24T02:03:16;101347.53;;;3.22;100.00
8286;BME280;4181;43.416;24.598;2023-01-24T02:06:02;101349.72;;;3.27;100.00
8286;BME280;4181;43.416;24.598;2023-01-24T02:08:28;101356.66;;;3.21;100.00
8286;BME280;4181;43.416;24.598;2023-01-24T02:10:55;101363.47;;;4.01;100.00
8286;BME280;4181;43.416;24.598;2023-01-24T02:13:41;101374.84;;;3.19;100.00
8286;BME280;4181;43.416;24.598;2023-01-24T02:16:11;101380.94;;;3.13;100.00
8286;BME280;4181;43.416;24.598;2023-01-24T02:18:38;101374.03;;;3.19;100.00
8286;BME280;4181;43.416;24.598;2023-01-24T02:21:07;101377.50;;;3.27;100.00
8286;BME280;4181;43.416;24.598;2023-01-24T02:26:25;101368.44;;;3.28;100.00
8286;BME280;4181;43.416;24.598;2023-01-24T02:28:57;101367.34;;;3.37;100.00
8286;BME280;4181;43.416;24.598;2023-01-24T02:31:24;101378.19;;;3.29;100.00
8286;BME280;4181;43.416;24.598;2023-01-24T02:33:49;101368.06;;;3.31;100.00
8286;BME280;4181;43.416;24.598;2023-01-24T02:36:28;101362.28;;;3.50;100.00
8286;BME280;4181;43.416;24.598;2023-01-24T02:39:14;101362.28;;;3.42;100.00
8286;BME280;4181;43.416;24.598;2023-01-24T02:41:54;101355.75;;;3.37;100.00
8286;BME280;4181;43.416;24.598;2023-01-24T02:44:29;101352.50;;;3.03;100.00
8286;BME280;4181;43.416;24.598;2023-01-24T02:46:56;101342.34;;;3.13;100.00
8286;BME280;4181;43.416;24.598;2023-01-24T02:49:21;101321.22;;;3.24;100.00
8286;BME280;4181;43.416;24.598;2023-01-24T02:51:47;101323.63;;;3.19;100.00
8286;BME280;4181;43.416;24.598;2023-01-24T02:54:48;101310.44;;;3.24;100.00
8286;BME280;4181;43.416;24.598;2023-01-24T02:57:13;101304.88;;;3.26;100.00
8286;BME280;4181;43.416;24.598;2023-01-24T02:59:57;101307.44;;;3.19;100.00
8286;BME280;4181;43.416;24.598;2023-01-24T03:02:23;101293.47;;;3.16;100.00
8286;BME280;4181;43.416;24.598;2023-01-24T03:04:48;101301.44;;;3.01;100.00
8286;BME280;4181;43.416;24.598;2023-01-24T03:07:14;101310.91;;;2.89;100.00
8286;BME280;4181;43.416;24.598;2023-01-24T03:09:39;101312.47;;;2.84;100.00
8286;BME280;4181;43.416;24.598;2023-01-24T03:12:13;101298.81;;;2.85;100.00
8286;BME280;4181;43.416;24.598;2023-01-24T03:14:58;101311.28;;;2.86;100.00
8286;BME280;4181;43.416;24.598;2023-01-24T03:17:42;101298.47;;;2.88;100.00
8286;BME280;4181;43.416;24.598;2023-01-24T03:20:25;101297.41;;;3.05;100.00
8286;BME280;4181;43.416;24.598;2023-01-24T03:23:09;101296.06;;;3.01;100.00
8286;BME280;4181;43.416;24.598;2023-01-24T03:25:54;101298.41;;;3.04;100.00
8286;BME280;4181;43.416;24.598;2023-01-24T03:28:39;101289.13;;;3.07;100.00
8286;BME280;4181;43.416;24.598;2023-01-24T03:31:23;101290.44;;;3.11;100.00
8286;BME280;4181;43.416;24.598;2023-01-24T03:34:07;101295.97;;;3.17;100.00
8286;BME280;4181;43.416;24.598;2023-01-24T03:36:51;101288.25;;;3.14;100.00
8286;BME280;4181;43.416;24.598;2023-01-24T03:39:16;101296.28;;;3.22;100.00
8286;BME280;4181;43.416;24.598;2023-01-24T03:42:00;101296.97;;;3.24;100.00
8286;BME280;4181;43.416;24.598;2023-01-24T03:44:26;101299.34;;;3.19;100.00
8286;BME280;4181;43.416;24.598;2023-01-24T03:46:51;101294.22;;;3.32;100.00
8286;BME280;4181;43.416;24.598;2023-01-24T03:49:17;101304.06;;;3.25;100.00
8286;BME280;4181;43.416;24.598;2023-01-24T03:51:42;101310.16;;;3.11;100.00
8286;BME280;4181;43.416;24.598;2023-01-24T03:54:27;101314.06;;;3.09;100.00
8286;BME280;4181;43.416;24.598;2023-01-24T03:56:52;101309.50;;;3.09;100.00
8286;BME280;4181;43.416;24.598;2023-01-24T03:59:18;101330.25;;;3.09;100.00
8286;BME280;4181;43.416;24.598;2023-01-24T04:01:43;101325.66;;;3.09;100.00
8286;BME280;4181;43.416;24.598;2023-01-24T04:04:09;101354.00;;;2.97;100.00
8286;BME280;4181;43.416;24.598;2023-01-24T04:06:36;101363.47;;;2.93;100.00
8286;BME280;4181;43.416;24.598;2023-01-24T04:09:02;101375.91;;;3.10;100.00
8286;BME280;4181;43.416;24.598;2023-01-24T04:11:27;101419.06;;;2.94;100.00
8286;BME280;4181;43.416;24.598;2023-01-24T04:13:53;101417.22;;;2.95;100.00
8286;BME280;4181;43.416;24.598;2023-01-24T04:16:18;101438.59;;;2.96;100.00
8286;BME280;4181;43.416;24.598;2023-01-24T04:18:44;101459.84;;;2.91;100.00
8286;BME280;4181;43.416;24.598;2023-01-24T04:21:09;101446.50;;;2.98;100.00
8286;BME280;4181;43.416;24.598;2023-01-24T04:23:36;101462.84;;;3.04;100.00
8286;BME280;4181;43.416;24.598;2023-01-24T04:26:02;101485.75;;;2.92;100.00
8286;BME280;4181;43.416;24.598;2023-01-24T04:28:28;101477.00;;;2.82;100.00
8286;BME280;4181;43.416;24.598;2023-01-24T04:30:56;101472.63;;;2.97;100.00
8286;BME280;4181;43.416;24.598;2023-01-24T04:33:22;101482.56;;;3.13;100.00
8286;BME280;4181;43.416;24.598;2023-01-24T04:35:48;101488.63;;;2.91;100.00
8286;BME280;4181;43.416;24.598;2023-01-24T04:38:13;101495.91;;;2.98;100.00
8286;BME280;4181;43.416;24.598;2023-01-24T04:40:39;101492.19;;;2.83;100.00
8286;BME280;4181;43.416;24.598;2023-01-24T04:43:05;101502.78;;;2.93;100.00
8286;BME280;4181;43.416;24.598;2023-01-24T04:45:31;101503.13;;;2.90;100.00
8286;BME280;4181;43.416;24.598;2023-01-24T04:47:56;101498.22;;;2.77;100.00
8286;BME280;4181;43.416;24.598;2023-01-24T04:50:22;101496.06;;;2.73;100.00
8286;BME280;4181;43.416;24.598;2023-01-24T04:52:48;101494.88;;;2.75;100.00
8286;BME280;4181;43.416;24.598;2023-01-24T04:55:13;101488.81;;;2.81;100.00
8286;BME280;4181;43.416;24.598;2023-01-24T04:57:38;101493.19;;;2.82;100.00
8286;BME280;4181;43.416;24.598;2023-01-24T05:00:05;101486.28;;;2.80;100.00
8286;BME280;4181;43.416;24.598;2023-01-24T05:02:32;101483.44;;;2.81;100.00
8286;BME280;4181;43.416;24.598;2023-01-24T05:04:58;101487.13;;;2.88;100.00
8286;BME280;4181;43.416;24.598;2023-01-24T05:07:23;101488.78;;;2.97;100.00
8286;BME280;4181;43.416;24.598;2023-01-24T05:09:49;101483.09;;;2.84;100.00
8286;BME280;4181;43.416;24.598;2023-01-24T05:12:14;101484.78;;;2.93;100.00
8286;BME280;4181;43.416;24.598;2023-01-24T05:14:40;101479.56;;;2.92;100.00
8286;BME280;4181;43.416;24.598;2023-01-24T05:17:05;101486.13;;;2.81;100.00
8286;BME280;4181;43.416;24.598;2023-01-24T05:19:31;101485.75;;;2.92;100.00
8286;BME280;4181;43.416;24.598;2023-01-24T05:21:56;101487.44;;;2.77;100.00
8286;BME280;4181;43.416;24.598;2023-01-24T05:24:21;101480.03;;;2.87;100.00
8286;BME280;4181;43.416;24.598;2023-01-24T05:26:47;101477.19;;;2.81;100.00
8286;BME280;4181;43.416;24.598;2023-01-24T05:29:12;101480.56;;;2.83;100.00
8286;BME280;4181;43.416;24.598;2023-01-24T05:31:38;101490.31;;;2.76;100.00
8286;BME280;4181;43.416;24.598;2023-01-24T05:34:03;101471.97;;;2.79;100.00
8286;BME280;4181;43.416;24.598;2023-01-24T05:36:30;101470.28;;;2.78;100.00
8286;BME280;4181;43.416;24.598;2023-01-24T05:38:56;101463.88;;;2.79;100.00
8286;BME280;4181;43.416;24.598;2023-01-24T05:41:21;101456.47;;;2.81;100.00
8286;BME280;4181;43.416;24.598;2023-01-24T05:43:48;101459.84;;;2.83;100.00
8286;BME280;4181;43.416;24.598;2023-01-24T05:46:15;101457.13;;;2.91;100.00
8286;BME280;4181;43.416;24.598;2023-01-24T05:48:42;101460.84;;;2.82;100.00
8286;BME280;4181;43.416;24.598;2023-01-24T05:51:10;101461.84;;;2.89;100.00
8286;BME280;4181;43.416;24.598;2023-01-24T05:53:38;101460.34;;;2.87;100.00
8286;BME280;4181;43.416;24.598;2023-01-24T05:56:15;101460.00;;;2.90;100.00
8286;BME280;4181;43.416;24.598;2023-01-24T05:58:42;101454.44;;;2.99;100.00
8286;BME280;4181;43.416;24.598;2023-01-24T06:01:12;101478.38;;;2.94;100.00
8286;BME280;4181;43.416;24.598;2023-01-24T06:03:39;101453.25;;;3.02;100.00
8286;BME280;4181;43.416;24.598;2023-01-24T06:06:07;101468.59;;;2.93;100.00
8286;BME280;4181;43.416;24.598;2023-01-24T06:08:33;101461.19;;;2.87;100.00
8286;BME280;4181;43.416;24.598;2023-01-24T06:11:07;101467.25;;;2.89;100.00
8286;BME280;4181;43.416;24.598;2023-01-24T06:13:33;101479.06;;;2.88;100.00
8286;BME280;4181;43.416;24.598;2023-01-24T06:16:07;101477.34;;;2.87;100.00
8286;BME280;4181;43.416;24.598;2023-01-24T06:18:34;101461.84;;;3.05;100.00
8286;BME280;4181;43.416;24.598;2023-01-24T06:21:05;101460.31;;;3.27;100.00
8286;BME280;4181;43.416;24.598;2023-01-24T06:23:31;101473.47;;;3.06;100.00
8286;BME280;4181;43.416;24.598;2023-01-24T06:25:57;101477.00;;;3.14;100.00
8286;BME280;4181;43.416;24.598;2023-01-24T06:28:24;101470.91;;;3.28;100.00
8286;BME280;4181;43.416;24.598;2023-01-24T06:34:07;101493.88;;;3.08;100.00
8286;BME280;4181;43.416;24.598;2023-01-24T06:39:34;101492.88;;;2.93;100.00
8286;BME280;4181;43.416;24.598;2023-01-24T06:42:01;101516.28;;;2.93;100.00
8286;BME280;4181;43.416;24.598;2023-01-24T06:44:27;101492.00;;;3.01;100.00
8286;BME280;4181;43.416;24.598;2023-01-24T06:46:52;101494.88;;;2.99;100.00
8286;BME280;4181;43.416;24.598;2023-01-24T06:49:18;101491.69;;;2.88;100.00
8286;BME280;4181;43.416;24.598;2023-01-24T06:51:49;101487.97;;;3.05;100.00
8286;BME280;4181;43.416;24.598;2023-01-24T06:54:14;101482.75;;;2.95;100.00
8286;BME280;4181;43.416;24.598;2023-01-24T06:56:41;101485.28;;;2.97;100.00
8286;BME280;4181;43.416;24.598;2023-01-24T06:59:06;101476.31;;;3.12;100.00
8286;BME280;4181;43.416;24.598;2023-01-24T07:01:32;101490.31;;;3.08;100.00
8286;BME280;4181;43.416;24.598;2023-01-24T07:03:57;101493.38;;;2.97;100.00
8286;BME280;4181;43.416;24.598;2023-01-24T07:06:22;101496.22;;;2.87;100.00
8286;BME280;4181;43.416;24.598;2023-01-24T07:08:49;101496.56;;;2.76;100.00
8286;BME280;4181;43.416;24.598;2023-01-24T07:11:14;101502.28;;;2.89;100.00
8286;BME280;4181;43.416;24.598;2023-01-24T07:13:40;101512.72;;;2.76;100.00
8286;BME280;4181;43.416;24.598;2023-01-24T07:16:05;101496.56;;;2.84;100.00
8286;BME280;4181;43.416;24.598;2023-01-24T07:18:31;101496.56;;;3.00;100.00
8286;BME280;4181;43.416;24.598;2023-01-24T07:20:57;101490.13;;;3.17;100.00
8286;BME280;4181;43.416;24.598;2023-01-24T07:23:26;101494.69;;;3.25;100.00
8286;BME280;4181;43.416;24.598;2023-01-24T07:25:57;101507.47;;;3.31;100.00
8286;BME280;4181;43.416;24.598;2023-01-24T07:28:23;101516.75;;;3.12;100.00
8286;BME280;4181;43.416;24.598;2023-01-24T07:30:48;101525.22;;;2.93;100.00
8286;BME280;4181;43.416;24.598;2023-01-24T07:33:15;101531.63;;;3.00;100.00
8286;BME280;4181;43.416;24.598;2023-01-24T07:35:41;101532.78;;;2.98;100.00
8286;BME280;4181;43.416;24.598;2023-01-24T07:38:07;101542.25;;;2.94;100.00
8286;BME280;4181;43.416;24.598;2023-01-24T07:40:32;101553.84;;;2.94;100.00
8286;BME280;4181;43.416;24.598;2023-01-24T07:43:01;101548.63;;;3.01;100.00
8286;BME280;4181;43.416;24.598;2023-01-24T07:45:27;101551.66;;;2.90;100.00
8286;BME280;4181;43.416;24.598;2023-01-24T07:47:56;101552.16;;;2.85;100.00
8286;BME280;4181;43.416;24.598;2023-01-24T07:50:23;101576.94;;;2.89;100.00
8286;BME280;4181;43.416;24.598;2023-01-24T07:52:53;101575.91;;;2.82;100.00
8286;BME280;4181;43.416;24.598;2023-01-24T07:55:19;101592.91;;;2.74;100.00
8286;BME280;4181;43.416;24.598;2023-01-24T07:57:44;101591.38;;;2.72;100.00
8286;BME280;4181;43.416;24.598;2023-01-24T08:00:10;101607.06;;;2.76;100.00
8286;BME280;4181;43.416;24.598;2023-01-24T08:02:36;101609.53;;;2.53;100.00
8286;BME280;4181;43.416;24.598;2023-01-24T08:05:01;101611.38;;;2.61;100.00
8286;BME280;4181;43.416;24.598;2023-01-24T08:07:27;101617.13;;;2.58;100.00
8286;BME280;4181;43.416;24.598;2023-01-24T08:09:52;101618.41;;;2.46;100.00
8286;BME280;4181;43.416;24.598;2023-01-24T08:12:18;101624.50;;;2.48;100.00
8286;BME280;4181;43.416;24.598;2023-01-24T08:14:43;101638.13;;;2.46;100.00
8286;BME280;4181;43.416;24.598;2023-01-24T08:17:09;101620.03;;;2.31;100.00
8286;BME280;4181;43.416;24.598;2023-01-24T08:19:35;101626.63;;;2.36;100.00
8286;BME280;4181;43.416;24.598;2023-01-24T08:22:02;101620.16;;;2.63;100.00
8286;BME280;4181;43.416;24.598;2023-01-24T08:24:28;101619.25;;;2.46;100.00
8286;BME280;4181;43.416;24.598;2023-01-24T08:26:54;101628.56;;;2.52;100.00
8286;BME280;4181;43.416;24.598;2023-01-24T08:29:20;101643.19;;;2.57;100.00
8286;BME280;4181;43.416;24.598;2023-01-24T08:31:45;101632.03;;;2.44;100.00
8286;BME280;4181;43.416;24.598;2023-01-24T08:34:13;101653.94;;;2.49;100.00
8286;BME280;4181;43.416;24.598;2023-01-24T08:36:39;101646.25;;;2.63;100.00
8286;BME280;4181;43.416;24.598;2023-01-24T08:39:04;101658.03;;;2.62;100.00
8286;BME280;4181;43.416;24.598;2023-01-24T08:41:30;101665.59;;;2.58;100.00
8286;BME280;4181;43.416;24.598;2023-01-24T08:43:57;101654.66;;;2.59;100.00
8286;BME280;4181;43.416;24.598;2023-01-24T08:46:22;101657.06;;;2.71;100.00
8286;BME280;4181;43.416;24.598;2023-01-24T08:48:48;101656.78;;;2.90;100.00
8286;BME280;4181;43.416;24.598;2023-01-24T08:51:13;101654.63;;;3.01;100.00
8286;BME280;4181;43.416;24.598;2023-01-24T08:53:39;101661.84;;;3.01;100.00
8286;BME280;4181;43.416;24.598;2023-01-24T08:56:04;101665.06;;;2.96;100.00
8286;BME280;4181;43.416;24.598;2023-01-24T08:58:32;101684.84;;;2.71;100.00
8286;BME280;4181;43.416;24.598;2023-01-24T09:00:59;101681.13;;;2.72;100.00
8286;BME280;4181;43.416;24.598;2023-01-24T09:03:25;101692.94;;;2.71;100.00
8286;BME280;4181;43.416;24.598;2023-01-24T09:05:56;101690.63;;;2.84;100.00
8286;BME280;4181;43.416;24.598;2023-01-24T09:08:24;101702.47;;;2.57;100.00
8286;BME280;4181;43.416;24.598;2023-01-24T09:10:50;101686.44;;;2.48;100.00
8286;BME280;4181;43.416;24.598;2023-01-24T09:13:15;101677.03;;;2.52;100.00
8286;BME280;4181;43.416;24.598;2023-01-24T09:15:41;101669.00;;;2.60;100.00
8286;BME280;4181;43.416;24.598;2023-01-24T09:18:06;101665.66;;;2.82;100.00
8286;BME280;4181;43.416;24.598;2023-01-24T09:20:33;101660.69;;;2.95;100.00
8286;BME280;4181;43.416;24.598;2023-01-24T09:22:59;101660.00;;;2.93;100.00
8286;BME280;4181;43.416;24.598;2023-01-24T09:25:25;101663.84;;;2.83;100.00
8286;BME280;4181;43.416;24.598;2023-01-24T09:27:55;101649.56;;;2.98;100.00
8286;BME280;4181;43.416;24.598;2023-01-24T09:30:21;101652.25;;;2.98;100.00
8286;BME280;4181;43.416;24.598;2023-01-24T09:32:47;101652.91;;;2.92;100.00
8286;BME280;4181;43.416;24.598;2023-01-24T09:35:13;101656.94;;;2.88;100.00
8286;BME280;4181;43.416;24.598;2023-01-24T09:37:39;101644.84;;;3.00;100.00
8286;BME280;4181;43.416;24.598;2023-01-24T09:42:52;101640.16;;;3.10;100.00
8286;BME280;4181;43.416;24.598;2023-01-24T09:45:22;101618.75;;;3.25;100.00
8286;BME280;4181;43.416;24.598;2023-01-24T09:47:56;101621.78;;;3.38;100.00
8286;BME280;4181;43.416;24.598;2023-01-24T09:50:27;101629.38;;;3.34;100.00
8286;BME280;4181;43.416;24.598;2023-01-24T09:52:56;101643.19;;;3.31;100.00
8286;BME280;4181;43.416;24.598;2023-01-24T09:55:26;101639.50;;;3.40;100.00
8286;BME280;4181;43.416;24.598;2023-01-24T09:58:04;101654.50;;;3.27;100.00
8286;BME280;4181;43.416;24.598;2023-01-24T10:00:37;101665.28;;;3.19;100.00
8286;BME280;4181;43.416;24.598;2023-01-24T10:03:12;101659.03;;;3.34;100.00
8286;BME280;4181;43.416;24.598;2023-01-24T10:05:39;101651.44;;;3.46;100.00
8286;BME280;4181;43.416;24.598;2023-01-24T10:23:42;101691.28;;;3.60;100.00
8286;BME280;4181;43.416;24.598;2023-01-24T10:26:42;101678.94;;;3.89;100.00
8286;BME280;4181;43.416;24.598;2023-01-24T10:29:24;101690.41;;;3.67;100.00
8286;BME280;4181;43.416;24.598;2023-01-24T10:32:03;101693.47;;;3.64;100.00
8286;BME280;4181;43.416;24.598;2023-01-24T10:34:41;101693.47;;;3.80;100.00
8286;BME280;4181;43.416;24.598;2023-01-24T10:37:14;101708.78;;;3.56;100.00
8286;BME280;4181;43.416;24.598;2023-01-24T10:39:44;101709.31;;;3.43;100.00
8286;BME280;4181;43.416;24.598;2023-01-24T10:42:24;101711.16;;;3.59;100.00
8286;BME280;4181;43.416;24.598;2023-01-24T10:44:51;101707.94;;;3.47;100.00
8286;BME280;4181;43.416;24.598;2023-01-24T10:47:39;101715.56;;;3.52;100.00
8286;BME280;4181;43.416;24.598;2023-01-24T10:50:12;101718.38;;;3.42;100.00
8286;BME280;4181;43.416;24.598;2023-01-24T10:52:39;101706.94;;;3.40;100.00
8286;BME280;4181;43.416;24.598;2023-01-24T10:57:51;101695.13;;;3.49;100.00
8286;BME280;4181;43.416;24.598;2023-01-24T11:00:29;101690.75;;;3.56;100.00
8286;BME280;4181;43.416;24.598;2023-01-24T11:03:01;101695.81;;;3.35;100.00
8286;BME280;4181;43.416;24.598;2023-01-24T11:05:37;101697.16;;;3.31;100.00
8286;BME280;4181;43.416;24.598;2023-01-24T11:08:03;101704.53;;;3.21;100.00
8286;BME280;4181;43.416;24.598;2023-01-24T11:10:37;101697.31;;;3.30;100.00
8286;BME280;4181;43.416;24.598;2023-01-24T11:13:33;101692.09;;;3.28;100.00
8286;BME280;4181;43.416;24.598;2023-01-24T11:16:03;101687.91;;;3.42;100.00
8286;BME280;4181;43.416;24.598;2023-01-24T11:18:30;101685.50;;;3.31;100.00
8286;BME280;4181;43.416;24.598;2023-01-24T11:21:15;101684.00;;;3.36;100.00
8286;BME280;4181;43.416;24.598;2023-01-24T11:23:42;101688.88;;;3.41;100.00
8286;BME280;4181;43.416;24.598;2023-01-24T11:29:33;101677.44;;;3.55;100.00
8286;BME280;4181;43.416;24.598;2023-01-24T11:34:54;101662.56;;;3.59;100.00
8286;BME280;4181;43.416;24.598;2023-01-24T11:40:46;101664.63;;;3.65;100.00
8286;BME280;4181;43.416;24.598;2023-01-24T11:54:14;101676.25;;;3.49;100.00
8286;BME280;4181;43.416;24.598;2023-01-24T12:04:43;101674.16;;;4.16;100.00
8286;BME280;4181;43.416;24.598;2023-01-24T12:10:06;101690.75;;;3.97;100.00
8286;BME280;4181;43.416;24.598;2023-01-24T12:13:18;101696.47;;;4.02;100.00
8286;BME280;4181;43.416;24.598;2023-01-24T12:21:06;101703.56;;;3.86;100.00
8286;BME280;4181;43.416;24.598;2023-01-24T12:26:43;101712.69;;;3.69;100.00
8286;BME280;4181;43.416;24.598;2023-01-24T12:29:21;101701.72;;;3.95;100.00
8286;BME280;4181;43.416;24.598;2023-01-24T12:35:03;101706.63;;;3.83;100.00
8286;BME280;4181;43.416;24.598;2023-01-24T12:40:07;101717.75;;;3.72;100.00
8286;BME280;4181;43.416;24.598;2023-01-24T12:42:46;101719.63;;;3.80;100.00
8286;BME280;4181;43.416;24.598;2023-01-24T12:45:20;101728.53;;;3.64;100.00
8286;BME280;4181;43.416;24.598;2023-01-24T12:47:54;101724.66;;;3.59;100.00
8286;BME280;4181;43.416;24.598;2023-01-24T12:50:30;101717.75;;;3.48;100.00
8286;BME280;4181;43.416;24.598;2023-01-24T12:53:08;101732.56;;;3.36;100.00
8286;BME280;4181;43.416;24.598;2023-01-24T12:55:45;101727.00;;;3.38;100.00
8286;BME280;4181;43.416;24.598;2023-01-24T12:58:15;101721.44;;;3.47;100.00
8286;BME280;4181;43.416;24.598;2023-01-24T13:11:44;101739.00;;;3.59;100.00
8286;BME280;4181;43.416;24.598;2023-01-24T13:14:32;101741.22;;;3.80;100.00
8286;BME280;4181;43.416;24.598;2023-01-24T13:31:29;101773.44;;;3.89;100.00
8286;BME280;4181;43.416;24.598;2023-01-24T13:33:58;101774.47;;;3.88;100.00
8286;BME280;4181;43.416;24.598;2023-01-24T13:36:35;101774.97;;;3.92;100.00
8286;BME280;4181;43.416;24.598;2023-01-24T13:39:02;101790.31;;;3.83;100.00
8286;BME280;4181;43.416;24.598;2023-01-24T13:49:33;101791.81;;;3.78;100.00
8286;BME280;4181;43.416;24.598;2023-01-24T13:52:04;101798.69;;;3.56;100.00
8286;BME280;4181;43.416;24.598;2023-01-24T13:54:43;101799.38;;;3.58;100.00
8286;BME280;4181;43.416;24.598;2023-01-24T13:59:37;101787.56;;;3.67;100.00
8286;BME280;4181;43.416;24.598;2023-01-24T14:03:24;101790.28;;;3.67;100.00
8286;BME280;4181;43.416;24.598;2023-01-24T14:10:35;101796.81;;;3.41;100.00
8286;BME280;4181;43.416;24.598;2023-01-24T14:13:01;101789.91;;;3.38;100.00
8286;BME280;4181;43.416;24.598;2023-01-24T14:15:36;101783.81;;;3.44;100.00
8286;BME280;4181;43.416;24.598;2023-01-24T14:21:20;101783.50;;;3.47;100.00
8286;BME280;4181;43.416;24.598;2023-01-24T14:23:57;101784.34;;;3.40;100.00
8286;BME280;4181;43.416;24.598;2023-01-24T14:26:26;101783.13;;;3.34;100.00
8286;BME280;4181;43.416;24.598;2023-01-24T14:28:58;101789.91;;;3.38;100.00
8286;BME280;4181;43.416;24.598;2023-01-24T14:31:36;101785.13;;;3.32;100.00
8286;BME280;4181;43.416;24.598;2023-01-24T14:34:11;101783.63;;;3.30;100.00
8286;BME280;4181;43.416;24.598;2023-01-24T14:36:38;101787.03;;;3.40;100.00
8286;BME280;4181;43.416;24.598;2023-01-24T14:41:49;101796.47;;;3.44;100.00
8286;BME280;4181;43.416;24.598;2023-01-24T14:44:18;101786.22;;;3.55;100.00
8286;BME280;4181;43.416;24.598;2023-01-24T14:46:57;101798.69;;;3.56;100.00
8286;BME280;4181;43.416;24.598;2023-01-24T14:51:53;101805.22;;;3.38;100.00
8286;BME280;4181;43.416;24.598;2023-01-24T14:54:20;101811.16;;;3.41;100.00
8286;BME280;4181;43.416;24.598;2023-01-24T14:56:47;101803.41;;;3.46;100.00
8286;BME280;4181;43.416;24.598;2023-01-24T14:59:12;101814.53;;;3.43;100.00
8286;BME280;4181;43.416;24.598;2023-01-24T15:01:39;101807.44;;;3.42;100.00
8286;BME280;4181;43.416;24.598;2023-01-24T15:04:18;101812.63;;;3.36;100.00
8286;BME280;4181;43.416;24.598;2023-01-24T15:06:44;101809.47;;;3.40;100.00
8286;BME280;4181;43.416;24.598;2023-01-24T15:09:12;101817.56;;;3.40;100.00
8286;BME280;4181;43.416;24.598;2023-01-24T15:11:40;101812.13;;;3.32;100.00
8286;BME280;4181;43.416;24.598;2023-01-24T15:14:17;101808.63;;;3.40;100.00
8286;BME280;4181;43.416;24.598;2023-01-24T15:16:48;101810.63;;;3.38;100.00
8286;BME280;4181;43.416;24.598;2023-01-24T15:19:24;101816.97;;;3.29;100.00